createdAt,value
2023-03-20T00:01:53.101Z,7.02
2023-03-20T00:05:55.863Z,7.15
2023-03-20T00:09:58.860Z,7.08
2023-03-20T00:14:03.930Z,6.88
2023-03-20T00:18:15.779Z,6.87
2023-03-20T00:22:18.468Z,6.89
2023-03-20T00:26:32.005Z,6.91
2023-03-20T00:30:34.694Z,7.06
2023-03-20T00:34:39.079Z,7.11
2023-03-20T00:38:41.850Z,6.96
2023-03-20T00:42:45.754Z,6.98
2023-03-20T00:46:48.616Z,7.18
2023-03-20T00:50:53.577Z,6.93
2023-03-20T00:54:56.279Z,7.01
2023-03-20T00:58:59.404Z,7.00
2023-03-20T01:03:02.876Z,7.11
2023-03-20T01:07:07.767Z,6.88
2023-03-20T01:11:11.303Z,7.00
2023-03-20T01:15:20.706Z,6.86
2023-03-20T01:19:23.644Z,6.86
2023-03-20T01:23:27.808Z,7.25
2023-03-20T01:27:30.626Z,7.20
2023-03-20T01:31:33.359Z,7.12
2023-03-20T01:35:36.671Z,7.09
2023-03-20T01:39:41.196Z,7.19
2023-03-20T01:43:44.468Z,7.29
2023-03-20T01:47:48.232Z,7.11
2023-03-20T01:51:52.557Z,7.21
2023-03-20T01:55:58.451Z,7.30
2023-03-20T02:00:04.022Z,7.41
2023-03-20T02:04:07.089Z,7.36
2023-03-20T02:08:18.208Z,7.32
2023-03-20T02:12:23.289Z,7.14
2023-03-20T02:16:26.233Z,7.38
2023-03-20T02:20:36.923Z,7.30
2023-03-20T02:25:17.336Z,7.28
2023-03-20T02:30:14.828Z,7.39
2023-03-20T02:34:32.355Z,7.28
2023-03-20T02:38:48.459Z,7.41
2023-03-20T02:42:58.226Z,7.40
2023-03-20T02:47:04.441Z,7.46
2023-03-20T02:51:13.816Z,7.49
2023-03-20T02:55:21.491Z,7.52
2023-03-20T02:59:29.415Z,7.47
2023-03-20T03:03:35.302Z,7.61
2023-03-20T03:07:39.265Z,7.68
2023-03-20T03:11:44.598Z,7.72
2023-03-20T03:15:49.749Z,7.72
2023-03-20T03:19:54.885Z,7.72
2023-03-20T03:23:57.631Z,7.57
2023-03-20T03:28:04.753Z,7.58
2023-03-20T03:32:08.559Z,7.68
2023-03-20T03:36:15.284Z,7.73
2023-03-20T03:40:23.035Z,7.74
2023-03-20T03:44:29.807Z,7.68
2023-03-20T03:48:36.577Z,7.69
2023-03-20T03:52:40.248Z,7.80
2023-03-20T03:56:44.526Z,7.77
2023-03-20T04:00:50.677Z,7.67
2023-03-20T04:04:55.082Z,7.73
2023-03-20T04:08:57.779Z,7.80
2023-03-20T04:13:00.469Z,7.88
2023-03-20T04:17:04.680Z,7.74
2023-03-20T04:21:08.182Z,7.84
2023-03-20T04:25:16.269Z,7.81
2023-03-20T04:29:19.017Z,7.68
2023-03-20T04:33:23.537Z,7.77
2023-03-20T04:37:26.287Z,7.82
2023-03-20T04:41:29.523Z,7.83
2023-03-20T04:45:32.308Z,7.83
2023-03-20T04:49:36.560Z,7.79
2023-03-20T04:53:39.479Z,7.74
2023-03-20T04:57:42.259Z,7.73
2023-03-20T05:01:45.098Z,7.70
2023-03-20T05:05:49.216Z,7.75
2023-03-20T05:09:52.122Z,7.77
2023-03-20T05:13:54.904Z,7.73
2023-03-20T05:17:57.594Z,7.73
2023-03-20T05:22:02.040Z,7.78
2023-03-20T05:26:05.028Z,7.76
2023-03-20T05:30:08.591Z,7.72
2023-03-20T05:34:11.342Z,7.68
2023-03-20T05:38:15.607Z,7.71
2023-03-20T05:42:18.295Z,7.70
2023-03-20T05:46:21.220Z,7.67
2023-03-20T05:50:24.197Z,7.74
2023-03-20T05:54:28.267Z,7.62
2023-03-20T05:58:31.172Z,7.54
2023-03-20T06:02:33.935Z,7.64
2023-03-20T06:06:38.092Z,7.58
2023-03-20T06:10:42.171Z,7.48
2023-03-20T06:14:44.910Z,7.52
2023-03-20T06:18:47.634Z,7.61
2023-03-20T06:22:50.699Z,7.58
2023-03-20T06:26:54.771Z,7.60
2023-03-20T06:30:57.649Z,7.61
2023-03-20T06:35:00.495Z,7.63
2023-03-20T06:39:03.696Z,7.67
2023-03-20T06:43:07.758Z,7.74
2023-03-20T06:47:10.999Z,7.64
2023-03-20T06:51:13.661Z,7.78
2023-03-20T06:55:16.354Z,7.71
2023-03-20T06:59:20.763Z,7.90
2023-03-20T07:03:23.466Z,7.68
2023-03-20T07:07:26.186Z,7.92
2023-03-20T07:11:28.992Z,7.80
2023-03-20T07:15:33.196Z,7.57
2023-03-20T07:19:38.119Z,7.48
2023-03-20T07:23:41.107Z,7.40
2023-03-20T07:27:50.202Z,7.51
2023-03-20T07:31:54.265Z,7.57
2023-03-20T07:35:57.090Z,7.71
2023-03-20T07:39:59.767Z,7.80
2023-03-20T07:44:03.070Z,8.61
2023-03-20T07:48:07.818Z,8.61
2023-03-20T07:52:10.791Z,8.54
2023-03-20T07:56:13.521Z,8.82
2023-03-20T08:00:17.674Z,8.67
2023-03-20T08:04:23.256Z,8.68
2023-03-20T08:08:26.286Z,8.52
2023-03-20T08:12:28.977Z,8.46
2023-03-20T08:16:31.630Z,8.70
2023-03-20T08:23:42.732Z,8.04
2023-03-20T08:27:45.606Z,7.96
2023-03-20T08:31:48.489Z,8.36
2023-03-20T08:35:58.161Z,8.73
2023-03-20T08:40:02.268Z,8.98
2023-03-20T08:44:05.030Z,8.74
2023-03-20T08:48:07.777Z,8.22
2023-03-20T08:52:10.577Z,8.38
2023-03-20T08:56:14.624Z,7.99
2023-03-20T09:00:20.342Z,8.53
2023-03-20T09:04:23.154Z,8.51
2023-03-20T09:08:25.855Z,8.97
2023-03-20T09:12:31.537Z,9.24
2023-03-20T09:16:34.393Z,8.16
2023-03-20T09:20:37.485Z,8.64
2023-03-20T09:24:40.826Z,8.45
2023-03-20T09:28:44.979Z,8.66
2023-03-20T09:32:47.782Z,8.54
2023-03-20T09:36:50.726Z,9.35
2023-03-20T09:40:55.253Z,9.16
2023-03-20T09:45:06.691Z,9.48
2023-03-20T09:49:14.485Z,10.08
2023-03-20T09:53:20.655Z,9.84
2023-03-20T09:57:25.938Z,9.64
2023-03-20T10:01:41.019Z,9.56
2023-03-20T10:05:46.629Z,9.08
2023-03-20T10:09:49.365Z,9.13
2023-03-20T10:14:16.860Z,9.42
2023-03-20T10:18:24.958Z,9.51
2023-03-20T10:22:30.864Z,10.44
2023-03-20T10:26:36.005Z,10.81
2023-03-20T10:30:48.889Z,10.42
2023-03-20T10:35:12.540Z,10.09
2023-03-20T10:39:21.192Z,10.01
2023-03-20T10:43:27.418Z,9.38
2023-03-20T10:47:32.474Z,9.82
2023-03-20T10:51:41.434Z,9.68
2023-03-20T10:55:45.119Z,10.47
2023-03-20T10:59:50.013Z,9.79
2023-03-20T11:03:52.731Z,9.71
2023-03-20T11:08:05.448Z,9.91
2023-03-20T11:12:18.505Z,10.02
2023-03-20T11:16:24.643Z,9.37
2023-03-20T11:20:32.464Z,10.08
2023-03-20T11:24:39.032Z,10.05
2023-03-20T11:28:42.815Z,10.69
2023-03-20T11:32:48.012Z,10.81
2023-03-20T11:37:09.131Z,10.82
2023-03-20T11:41:20.241Z,10.84
2023-03-20T11:45:23.564Z,10.10
2023-03-20T11:49:27.702Z,11.38
2023-03-20T11:53:32.798Z,11.06
2023-03-20T11:57:38.401Z,10.53
2023-03-20T12:01:44.796Z,10.11
2023-03-20T12:05:47.884Z,9.77
2023-03-20T12:09:53.639Z,10.05
2023-03-20T12:14:00.503Z,9.99
2023-03-20T12:18:04.784Z,9.69
2023-03-20T12:22:16.094Z,9.74
2023-03-20T12:26:22.643Z,9.97
2023-03-20T12:30:39.483Z,10.60
2023-03-20T12:34:44.260Z,10.12
2023-03-20T12:38:47.196Z,10.28
2023-03-20T12:43:00.503Z,10.34
2023-03-20T12:47:15.468Z,10.17
2023-03-20T12:51:20.624Z,9.81
2023-03-20T12:55:29.703Z,9.85
2023-03-20T12:59:39.835Z,9.79
2023-03-20T13:03:53.096Z,9.80
2023-03-20T13:08:07.597Z,9.51
2023-03-20T13:12:17.092Z,9.92
2023-03-20T13:16:25.884Z,10.25
2023-03-20T13:20:32.192Z,9.94
2023-03-20T13:24:39.877Z,10.41
2023-03-20T13:28:47.873Z,10.16
2023-03-20T13:32:56.464Z,10.02
2023-03-20T13:37:23.096Z,10.19
2023-03-20T13:41:26.841Z,10.16
2023-03-20T13:45:35.188Z,10.13
2023-03-20T13:49:39.046Z,10.13
2023-03-20T13:53:53.353Z,10.25
2023-03-20T13:58:16.628Z,10.10
2023-03-20T14:02:34.515Z,10.74
2023-03-20T14:06:52.153Z,10.41
2023-03-20T14:11:07.245Z,10.55
2023-03-20T14:15:13.374Z,10.61
2023-03-20T14:19:20.810Z,10.94
2023-03-20T14:23:34.004Z,10.52
2023-03-20T14:27:54.729Z,10.16
2023-03-20T14:32:05.359Z,10.58
2023-03-20T14:36:20.754Z,10.65
2023-03-20T14:40:25.204Z,10.92
2023-03-20T14:44:39.666Z,11.04
2023-03-20T14:48:45.317Z,11.04
2023-03-20T14:52:56.014Z,11.37
2023-03-20T14:57:09.878Z,11.13
2023-03-20T15:01:20.028Z,10.98
2023-03-20T15:05:25.550Z,10.83
2023-03-20T15:09:32.156Z,10.79
2023-03-20T15:13:35.655Z,10.53
2023-03-20T15:17:41.497Z,10.55
2023-03-20T15:21:48.089Z,10.63
2023-03-20T15:25:51.750Z,10.55
2023-03-20T15:29:56.374Z,10.63
2023-03-20T15:34:01.302Z,10.35
2023-03-20T15:38:06.310Z,10.30
2023-03-20T15:42:13.964Z,10.27
2023-03-20T15:46:18.811Z,10.39
2023-03-20T15:50:24.068Z,10.39
2023-03-20T15:54:27.116Z,10.28
2023-03-20T15:58:32.031Z,10.15
2023-03-20T16:02:36.318Z,10.15
2023-03-20T16:06:47.228Z,10.13
2023-03-20T16:10:50.477Z,10.06
2023-03-20T16:14:53.336Z,10.03
2023-03-20T16:18:58.115Z,10.02
2023-03-20T16:23:05.828Z,9.93
2023-03-20T16:27:09.782Z,9.85
2023-03-20T16:31:15.660Z,9.83
2023-03-20T16:35:20.782Z,9.69
2023-03-20T16:39:27.402Z,9.72
2023-03-20T16:43:32.103Z,9.74
2023-03-20T16:47:36.177Z,9.80
2023-03-20T16:51:38.962Z,9.78
2023-03-20T16:55:47.136Z,9.83
2023-03-20T16:59:51.949Z,9.69
2023-03-20T17:03:55.875Z,9.66
2023-03-20T17:08:06.762Z,9.64
2023-03-20T17:12:16.257Z,9.72
2023-03-20T17:16:21.384Z,9.68
2023-03-20T17:20:26.284Z,9.75
2023-03-20T17:24:28.992Z,9.78
2023-03-20T17:28:35.971Z,9.61
2023-03-20T17:32:38.720Z,9.51
2023-03-20T17:36:41.458Z,9.38
2023-03-20T17:40:44.274Z,9.29
2023-03-20T17:44:49.528Z,9.25
2023-03-20T17:48:52.929Z,9.09
2023-03-20T17:52:56.158Z,9.18
2023-03-20T17:56:58.924Z,9.02
2023-03-20T18:01:03.901Z,8.85
2023-03-20T18:05:07.849Z,8.60
2023-03-20T18:09:13.430Z,8.29
2023-03-20T18:13:18.667Z,7.94
2023-03-20T18:17:22.913Z,7.83
2023-03-20T18:21:25.677Z,7.72
2023-03-20T18:25:28.473Z,7.72
2023-03-20T18:29:31.218Z,7.21
2023-03-20T18:33:35.372Z,7.33
2023-03-20T18:37:38.115Z,6.88
2023-03-20T18:41:40.788Z,6.40
2023-03-20T18:45:43.474Z,6.30
2023-03-20T18:49:47.542Z,5.91
2023-03-20T18:53:50.238Z,6.22
2023-03-20T18:57:53.038Z,6.15
2023-03-20T19:01:55.910Z,6.16
2023-03-20T19:06:00.373Z,6.13
2023-03-20T19:10:03.436Z,6.23
2023-03-20T19:14:06.116Z,5.75
2023-03-20T19:18:12.473Z,5.76
2023-03-20T19:22:29.069Z,5.75
2023-03-20T19:26:33.523Z,5.72
2023-03-20T19:30:37.124Z,5.82
2023-03-20T19:35:31.193Z,5.92
2023-03-20T19:39:04.987Z,5.61
2023-03-20T19:43:08.419Z,6.08
2023-03-20T19:47:11.572Z,6.22
2023-03-20T19:51:16.070Z,6.23
2023-03-20T19:55:20.400Z,6.27
2023-03-20T19:59:23.356Z,5.84
2023-03-20T20:03:26.989Z,6.01
2023-03-20T20:08:09.092Z,5.96
2023-03-20T20:11:53.882Z,6.27
2023-03-20T20:15:57.940Z,6.28
2023-03-20T20:20:01.357Z,5.96
2023-03-20T20:24:04.193Z,5.88
2023-03-20T20:28:09.900Z,6.34
2023-03-20T20:32:12.726Z,6.37
2023-03-20T20:40:39.185Z,5.85
2023-03-20T20:44:43.363Z,5.97
2023-03-20T20:48:46.064Z,5.99
2023-03-20T20:52:49.008Z,5.56
2023-03-20T20:56:51.771Z,5.87
2023-03-20T21:00:57.746Z,5.92
2023-03-20T21:05:00.696Z,6.15
2023-03-20T21:09:03.468Z,5.95
2023-03-20T21:13:08.257Z,5.31
2023-03-20T21:17:12.488Z,5.40
2023-03-20T21:21:16.024Z,5.79
2023-03-20T21:25:28.893Z,5.91
2023-03-20T21:29:39.832Z,5.75
2023-03-20T21:33:44.208Z,5.56
2023-03-20T21:38:41.856Z,5.29
2023-03-20T21:42:09.530Z,5.28
2023-03-20T21:46:52.492Z,5.20
2023-03-20T21:51:15.165Z,4.72
2023-03-20T22:00:01.186Z,5.39
2023-03-20T22:13:21.768Z,4.74
2023-03-20T22:35:05.098Z,5.20
2023-03-20T22:44:17.524Z,5.00
2023-03-20T22:47:38.818Z,5.00
2023-03-20T22:51:57.405Z,4.60
2023-03-20T22:56:04.122Z,4.88
2023-03-20T23:00:10.562Z,5.06
2023-03-20T23:04:13.660Z,4.81
2023-03-20T23:08:16.481Z,5.02
2023-03-20T23:12:19.320Z,5.24
2023-03-20T23:16:23.303Z,5.14
2023-03-20T23:20:25.807Z,4.96
2023-03-20T23:24:28.491Z,5.18
2023-03-20T23:28:31.202Z,5.43
2023-03-20T23:32:38.501Z,5.09
2023-03-20T23:36:42.263Z,5.21
2023-03-20T23:40:49.629Z,5.07
2023-03-20T23:44:57.470Z,5.04
2023-03-20T23:49:05.740Z,5.08
2023-03-20T23:53:19.493Z,5.27
2023-03-20T23:57:22.864Z,5.25
